Time;durP1;ratioP1;P1;durP2;ratioP2;P2;SDS_P1;SDS_P2;PMS_P1;PMS_P2;Temp;Humidity;BMP_temperature;BMP_pressure;BME280_temperature;BME280_humidity;BME280_pressure;Samples;Min_cycle;Max_cycle;Signal;HPM_P1;HPM_P2
2022/04/07 00:00:07;;;;;;;4.30;1.88;;;;;;;;;;4911591;29;20056;-63
2022/04/07 00:02:53;;;;;;;7.35;2.17;;;;;;;;;;4910757;29;20062;-64
2022/04/07 00:05:19;;;;;;;5.05;1.80;;;;;;;;;;4915417;29;20052;-65
2022/04/07 00:07:45;;;;;;;2.38;1.80;;;;;;;;;;4905802;29;20053;-66
2022/04/07 00:10:10;;;;;;;4.68;1.80;;;;;;;;;;4918313;29;20067;-67
2022/04/07 00:12:37;;;;;;;5.85;1.67;;;;;;;;;;4916219;29;20060;-64
2022/04/07 00:15:03;;;;;;;4.32;2.05;;;;;;;;;;4915725;29;20251;-64
2022/04/07 00:17:29;;;;;;;2.85;1.52;;;;;;;;;;4913383;29;20056;-65
2022/04/07 00:19:55;;;;;;;2.55;1.75;;;;;;;;;;4912990;29;20130;-64
2022/04/07 00:22:21;;;;;;;2.08;1.52;;;;;;;;;;4916896;29;20192;-65
2022/04/07 00:24:47;;;;;;;3.00;1.80;;;;;;;;;;4909836;29;20418;-65
2022/04/07 00:27:13;;;;;;;3.35;1.98;;;;;;;;;;4913977;29;20103;-68
2022/04/07 00:29:38;;;;;;;5.60;1.70;;;;;;;;;;4913567;29;20078;-67
2022/04/07 00:32:06;;;;;;;3.15;1.65;;;;;;;;;;4911247;29;20056;-66
2022/04/07 00:34:33;;;;;;;4.47;2.00;;;;;;;;;;4913277;29;20082;-64
2022/04/07 00:36:59;;;;;;;4.57;1.77;;;;;;;;;;4914496;29;20048;-65
2022/04/07 00:39:25;;;;;;;2.22;1.67;;;;;;;;;;4897962;29;20187;-67
2022/04/07 00:41:51;;;;;;;2.63;2.00;;;;;;;;;;4914226;29;20080;-64
2022/04/07 00:44:18;;;;;;;3.63;1.80;;;;;;;;;;4906707;29;20063;-65
2022/04/07 00:46:43;;;;;;;3.42;1.70;;;;;;;;;;4906764;29;20123;-64
2022/04/07 00:49:10;;;;;;;3.13;1.70;;;;;;;;;;4904354;29;20168;-65
2022/04/07 00:51:39;;;;;;;1.90;1.60;;;;;;;;;;4915743;29;20056;-67
2022/04/07 00:54:07;;;;;;;2.60;1.60;;;;;;;;;;4914713;29;20500;-66
2022/04/07 00:56:35;;;;;;;4.50;1.77;;;;;;;;;;4904782;29;20059;-64
2022/04/07 00:59:01;;;;;;;3.60;1.92;;;;;;;;;;4906905;29;20059;-66
2022/04/07 01:01:28;;;;;;;3.85;1.60;;;;;;;;;;4903178;29;20067;-65
2022/04/07 01:03:56;;;;;;;3.78;1.60;;;;;;;;;;4910765;29;20073;-68
2022/04/07 01:06:23;;;;;;;4.82;1.70;;;;;;;;;;4914751;29;20044;-66
2022/04/07 01:08:49;;;;;;;3.63;1.70;;;;;;;;;;4907966;29;20536;-66
2022/04/07 01:11:15;;;;;;;5.03;1.83;;;;;;;;;;4914143;29;20164;-65
2022/04/07 01:13:51;;;;;;;2.50;1.73;;;;;;;;;;4905141;29;20135;-65
2022/04/07 01:16:19;;;;;;;2.20;1.52;;;;;;;;;;4913501;29;20060;-63
2022/04/07 01:18:46;;;;;;;2.97;1.70;;;;;;;;;;4912470;29;20102;-67
2022/04/07 01:21:14;;;;;;;3.30;1.67;;;;;;;;;;4883368;29;20164;-64
2022/04/07 01:23:46;;;;;;;3.72;1.92;;;;;;;;;;4913377;29;20163;-65
2022/04/07 01:26:13;;;;;;;2.38;1.65;;;;;;;;;;4905070;29;20040;-64
2022/04/07 01:28:39;;;;;;;6.55;1.98;;;;;;;;;;4912126;29;20048;-65
2022/04/07 01:31:04;;;;;;;4.63;1.83;;;;;;;;;;4901316;29;20044;-65
2022/04/07 01:33:32;;;;;;;3.30;1.65;;;;;;;;;;4912724;29;20056;-64
2022/04/07 01:35:59;;;;;;;3.05;1.70;;;;;;;;;;4914123;29;20064;-64
2022/04/07 01:38:25;;;;;;;3.13;1.70;;;;;;;;;;4911910;29;20039;-65
2022/04/07 01:40:51;;;;;;;1.92;1.70;;;;;;;;;;4913835;29;20040;-65
2022/04/07 01:43:17;;;;;;;3.30;1.65;;;;;;;;;;4896696;29;20071;-62
2022/04/07 01:45:44;;;;;;;3.45;1.88;;;;;;;;;;4912719;29;20656;-64
2022/04/07 01:48:10;;;;;;;3.53;1.70;;;;;;;;;;4911265;29;20121;-64
2022/04/07 01:50:38;;;;;;;4.00;1.70;;;;;;;;;;4915107;29;20140;-65
2022/04/07 01:53:04;;;;;;;5.30;1.70;;;;;;;;;;4913608;29;20044;-65
2022/04/07 01:55:31;;;;;;;3.40;1.80;;;;;;;;;;4914243;29;20127;-65
2022/04/07 01:57:58;;;;;;;2.83;1.50;;;;;;;;;;4914592;29;20103;-63
2022/04/07 02:00:25;;;;;;;5.85;1.98;;;;;;;;;;4910396;29;20146;-63
2022/04/07 02:02:50;;;;;;;3.15;1.85;;;;;;;;;;4913430;29;20052;-65
2022/04/07 02:05:16;;;;;;;3.17;1.60;;;;;;;;;;4915945;29;20044;-63
2022/04/07 02:07:43;;;;;;;3.97;1.80;;;;;;;;;;4896753;29;20521;-63
2022/04/07 02:10:12;;;;;;;4.57;1.80;;;;;;;;;;4917399;29;20055;-63
2022/04/07 02:12:41;;;;;;;4.38;1.50;;;;;;;;;;4895781;29;20076;-64
2022/04/07 02:15:09;;;;;;;2.80;1.67;;;;;;;;;;4914335;29;20047;-64
2022/04/07 02:17:35;;;;;;;2.92;2.00;;;;;;;;;;4894832;29;20055;-62
2022/04/07 02:20:05;;;;;;;3.38;1.70;;;;;;;;;;4914615;29;20139;-64
2022/04/07 02:22:31;;;;;;;3.67;1.90;;;;;;;;;;4914364;29;20076;-63
2022/04/07 02:24:58;;;;;;;3.05;1.80;;;;;;;;;;4913672;29;20098;-63
2022/04/07 02:27:25;;;;;;;6.25;2.13;;;;;;;;;;4913148;29;20074;-64
2022/04/07 02:29:51;;;;;;;3.40;1.90;;;;;;;;;;4913054;29;20384;-64
2022/04/07 02:32:18;;;;;;;3.75;1.70;;;;;;;;;;4910572;29;20044;-64
2022/04/07 02:34:44;;;;;;;2.75;1.85;;;;;;;;;;4912861;29;20056;-62
2022/04/07 02:37:10;;;;;;;3.65;2.00;;;;;;;;;;4914091;29;20402;-65
2022/04/07 02:39:36;;;;;;;3.63;1.90;;;;;;;;;;4912184;29;20127;-65
2022/04/07 02:42:03;;;;;;;2.88;1.52;;;;;;;;;;4913429;29;20127;-64
2022/04/07 02:44:28;;;;;;;3.80;1.75;;;;;;;;;;4913412;29;20387;-64
2022/04/07 02:46:54;;;;;;;4.03;1.92;;;;;;;;;;4916243;29;20048;-63
2022/04/07 02:49:20;;;;;;;3.80;1.70;;;;;;;;;;4915409;29;20191;-64
2022/04/07 02:51:46;;;;;;;3.22;1.77;;;;;;;;;;4916855;29;20068;-62
2022/04/07 02:54:12;;;;;;;3.35;1.65;;;;;;;;;;4909387;29;20051;-62
2022/04/07 02:56:38;;;;;;;2.90;2.08;;;;;;;;;;4913674;29;20058;-64
2022/04/07 02:59:04;;;;;;;4.05;2.22;;;;;;;;;;4912446;29;20051;-62
2022/04/07 03:01:30;;;;;;;4.78;1.85;;;;;;;;;;4909680;29;20775;-62
2022/04/07 03:03:57;;;;;;;3.38;1.63;;;;;;;;;;4911554;29;20074;-65
2022/04/07 03:06:23;;;;;;;4.30;1.90;;;;;;;;;;4911628;29;20541;-64
2022/04/07 03:08:50;;;;;;;5.13;1.73;;;;;;;;;;4912282;29;20048;-66
2022/04/07 03:11:16;;;;;;;3.50;2.30;;;;;;;;;;4913456;29;20052;-65
2022/04/07 03:13:43;;;;;;;6.32;2.05;;;;;;;;;;4911642;29;20079;-62
2022/04/07 03:16:09;;;;;;;4.30;1.65;;;;;;;;;;4911073;29;20075;-65
2022/04/07 03:18:35;;;;;;;4.20;1.90;;;;;;;;;;4910134;29;20421;-63
2022/04/07 03:21:02;;;;;;;4.28;2.00;;;;;;;;;;4911837;29;20044;-63
2022/04/07 03:23:27;;;;;;;4.80;2.00;;;;;;;;;;4910444;29;20092;-65
2022/04/07 03:25:53;;;;;;;3.35;1.90;;;;;;;;;;4911849;29;20123;-62
2022/04/07 03:28:19;;;;;;;5.43;1.75;;;;;;;;;;4913473;29;20070;-64
2022/04/07 03:30:45;;;;;;;4.38;2.08;;;;;;;;;;4911790;29;20055;-64
2022/04/07 03:33:11;;;;;;;5.53;1.95;;;;;;;;;;4914296;29;20489;-64
2022/04/07 03:35:37;;;;;;;3.72;1.65;;;;;;;;;;4912426;29;20064;-63
2022/04/07 03:38:06;;;;;;;4.43;1.85;;;;;;;;;;4907373;29;20108;-63
2022/04/07 03:40:34;;;;;;;4.78;2.35;;;;;;;;;;4909844;29;20056;-63
2022/04/07 03:43:01;;;;;;;7.15;2.35;;;;;;;;;;4912564;29;20048;-62
2022/04/07 03:45:26;;;;;;;7.05;3.17;;;;;;;;;;4911136;29;20040;-63
2022/04/07 03:47:52;;;;;;;3.65;2.72;;;;;;;;;;4911025;29;20064;-65
2022/04/07 03:50:18;;;;;;;4.78;3.33;;;;;;;;;;4912740;29;20052;-62
2022/04/07 03:52:44;;;;;;;7.13;3.45;;;;;;;;;;4912322;29;20048;-63
2022/04/07 03:55:10;;;;;;;5.20;2.70;;;;;;;;;;4909752;29;20073;-65
2022/04/07 03:57:36;;;;;;;4.20;3.03;;;;;;;;;;4912493;29;20134;-63
2022/04/07 04:00:04;;;;;;;5.07;3.40;;;;;;;;;;4912000;29;20096;-62
2022/04/07 04:02:30;;;;;;;4.78;2.42;;;;;;;;;;4891851;29;20102;-63
2022/04/07 04:04:56;;;;;;;4.63;2.45;;;;;;;;;;4910466;29;20534;-63
2022/04/07 04:07:21;;;;;;;5.05;2.22;;;;;;;;;;4911205;29;20498;-63
2022/04/07 04:09:47;;;;;;;7.82;2.15;;;;;;;;;;4908552;29;20064;-65
2022/04/07 04:12:13;;;;;;;4.40;2.00;;;;;;;;;;4910587;29;20044;-63
2022/04/07 04:14:39;;;;;;;6.72;2.03;;;;;;;;;;4909848;29;20064;-63
2022/04/07 04:17:05;;;;;;;6.22;1.92;;;;;;;;;;4909294;29;20180;-64
2022/04/07 04:19:33;;;;;;;2.72;1.98;;;;;;;;;;4909806;29;20060;-64
2022/04/07 04:21:59;;;;;;;4.45;2.00;;;;;;;;;;4913177;29;20067;-63
2022/04/07 04:24:25;;;;;;;3.78;2.20;;;;;;;;;;4910464;29;20131;-64
2022/04/07 04:26:51;;;;;;;3.92;2.15;;;;;;;;;;4911445;29;20476;-64
2022/04/07 04:29:17;;;;;;;4.03;2.20;;;;;;;;;;4908287;29;20147;-63
2022/04/07 04:31:44;;;;;;;8.63;2.25;;;;;;;;;;4904963;29;20056;-63
2022/04/07 04:34:09;;;;;;;3.28;2.15;;;;;;;;;;4904094;29;20064;-64
2022/04/07 04:36:35;;;;;;;6.28;2.63;;;;;;;;;;4894544;29;20075;-64
2022/04/07 04:39:03;;;;;;;3.75;2.10;;;;;;;;;;4880440;29;20060;-63
2022/04/07 04:41:29;;;;;;;5.38;2.20;;;;;;;;;;4898151;29;20143;-64
2022/04/07 04:43:54;;;;;;;5.80;2.33;;;;;;;;;;4901541;29;20140;-62
2022/04/07 04:46:21;;;;;;;6.57;2.10;;;;;;;;;;4903371;29;20343;-63
2022/04/07 04:48:47;;;;;;;4.63;2.20;;;;;;;;;;4902676;29;20055;-65
2022/04/07 04:51:13;;;;;;;6.45;2.50;;;;;;;;;;4904892;29;20056;-64
2022/04/07 04:53:39;;;;;;;4.57;2.20;;;;;;;;;;4907371;29;20532;-64
2022/04/07 04:56:05;;;;;;;4.30;2.50;;;;;;;;;;4908721;29;20060;-63
2022/04/07 04:58:31;;;;;;;4.55;2.10;;;;;;;;;;4908393;29;20576;-63
2022/04/07 05:00:57;;;;;;;7.70;2.78;;;;;;;;;;4901615;29;20491;-64
2022/04/07 05:03:23;;;;;;;4.40;2.40;;;;;;;;;;4905520;29;20387;-64
2022/04/07 05:05:49;;;;;;;7.18;2.60;;;;;;;;;;4904408;29;20047;-65
2022/04/07 05:08:15;;;;;;;6.05;2.45;;;;;;;;;;4904521;29;20104;-64
2022/04/07 05:10:41;;;;;;;8.48;2.55;;;;;;;;;;4907495;29;20793;-64
2022/04/07 05:13:07;;;;;;;5.75;2.30;;;;;;;;;;4902681;29;20052;-64
2022/04/07 05:15:35;;;;;;;8.07;2.17;;;;;;;;;;4900994;29;20075;-63
2022/04/07 05:18:02;;;;;;;5.13;2.22;;;;;;;;;;4902776;29;20059;-64
2022/04/07 05:20:27;;;;;;;5.10;2.60;;;;;;;;;;4892322;29;20060;-64
2022/04/07 05:22:53;;;;;;;4.50;2.40;;;;;;;;;;4899967;29;20143;-63
2022/04/07 05:25:19;;;;;;;5.85;2.72;;;;;;;;;;4905421;29;20052;-67
2022/04/07 05:27:45;;;;;;;5.32;2.83;;;;;;;;;;4895656;29;20454;-63
2022/04/07 05:30:13;;;;;;;4.57;2.75;;;;;;;;;;4909710;29;20048;-64
2022/04/07 05:32:39;;;;;;;4.72;2.65;;;;;;;;;;4901722;29;20490;-65
2022/04/07 05:35:06;;;;;;;6.65;2.45;;;;;;;;;;4905638;29;20858;-63
2022/04/07 05:37:32;;;;;;;8.45;2.65;;;;;;;;;;4905009;29;20475;-63
2022/04/07 05:39:57;;;;;;;5.38;2.80;;;;;;;;;;4907601;29;20071;-64
2022/04/07 05:42:23;;;;;;;4.65;2.67;;;;;;;;;;4906529;29;20056;-64
2022/04/07 05:44:49;;;;;;;10.90;3.08;;;;;;;;;;4904089;29;20060;-65
2022/04/07 05:47:15;;;;;;;8.27;2.92;;;;;;;;;;4905622;29;20055;-63
2022/04/07 05:49:41;;;;;;;4.57;2.72;;;;;;;;;;4903649;29;20390;-63
2022/04/07 05:52:07;;;;;;;9.23;3.00;;;;;;;;;;4908926;29;20060;-64
2022/04/07 05:54:34;;;;;;;4.47;2.28;;;;;;;;;;4905294;29;20048;-64
2022/04/07 05:57:00;;;;;;;13.82;3.10;;;;;;;;;;4890918;29;20060;-64
2022/04/07 05:59:26;;;;;;;8.05;2.70;;;;;;;;;;4902613;29;20063;-64
2022/04/07 06:01:52;;;;;;;10.55;3.25;;;;;;;;;;4900989;29;20052;-64
2022/04/07 06:04:18;;;;;;;6.13;2.90;;;;;;;;;;4903785;29;20486;-64
2022/04/07 06:06:44;;;;;;;6.05;2.70;;;;;;;;;;4907269;29;20059;-64
2022/04/07 06:09:10;;;;;;;5.15;2.90;;;;;;;;;;4904822;29;20470;-64
2022/04/07 06:11:36;;;;;;;10.07;3.13;;;;;;;;;;4905058;29;20090;-65
2022/04/07 06:14:03;;;;;;;10.27;3.35;;;;;;;;;;4906811;29;20075;-64
2022/04/07 06:16:29;;;;;;;9.40;3.10;;;;;;;;;;4907139;29;20066;-64
2022/04/07 06:18:55;;;;;;;6.43;3.08;;;;;;;;;;4905420;29;20451;-65
2022/04/07 06:21:24;;;;;;;7.05;2.88;;;;;;;;;;4908995;29;20048;-64
2022/04/07 06:23:50;;;;;;;9.02;2.63;;;;;;;;;;4903045;29;20471;-64
2022/04/07 06:26:19;;;;;;;6.75;2.55;;;;;;;;;;4903342;29;20044;-63
2022/04/07 06:28:46;;;;;;;6.35;2.70;;;;;;;;;;4905958;29;20063;-64
2022/04/07 06:31:11;;;;;;;5.70;2.55;;;;;;;;;;4909853;29;20433;-65
2022/04/07 06:33:38;;;;;;;7.75;2.78;;;;;;;;;;4903115;29;20116;-63
2022/04/07 06:36:04;;;;;;;10.77;2.92;;;;;;;;;;4911156;29;20564;-64
2022/04/07 06:38:33;;;;;;;10.18;2.92;;;;;;;;;;4906242;29;20499;-64
2022/04/07 06:41:00;;;;;;;4.18;2.65;;;;;;;;;;4899825;29;20399;-63
2022/04/07 06:43:26;;;;;;;7.60;3.03;;;;;;;;;;4905392;29;20059;-65
2022/04/07 06:45:52;;;;;;;7.43;2.95;;;;;;;;;;4908881;29;20052;-66
2022/04/07 06:48:19;;;;;;;6.93;2.95;;;;;;;;;;4911730;29;20048;-65
2022/04/07 06:50:45;;;;;;;7.07;2.85;;;;;;;;;;4900942;29;20548;-63
2022/04/07 06:53:12;;;;;;;7.03;2.40;;;;;;;;;;4901043;29;20080;-67
2022/04/07 06:55:38;;;;;;;4.65;2.30;;;;;;;;;;4909786;29;20047;-68
2022/04/07 06:58:10;;;;;;;5.53;2.67;;;;;;;;;;4911294;29;20040;-67
2022/04/07 07:00:44;;;;;;;9.88;2.47;;;;;;;;;;4910784;29;20427;-66
2022/04/07 07:03:12;;;;;;;6.15;2.65;;;;;;;;;;4909989;29;20056;-67
2022/04/07 07:05:38;;;;;;;12.02;2.55;;;;;;;;;;4905854;29;20509;-67
2022/04/07 07:08:19;;;;;;;9.23;2.92;;;;;;;;;;4907726;29;20052;-67
2022/04/07 07:10:48;;;;;;;10.35;2.67;;;;;;;;;;4914166;29;20044;-66
2022/04/07 07:13:20;;;;;;;8.70;2.60;;;;;;;;;;4912412;29;20078;-67
2022/04/07 07:15:47;;;;;;;3.90;2.50;;;;;;;;;;4906533;29;20056;-67
2022/04/07 07:18:13;;;;;;;4.47;3.22;;;;;;;;;;4906060;29;20052;-68
2022/04/07 07:20:39;;;;;;;8.52;3.05;;;;;;;;;;4908163;29;20100;-67
2022/04/07 07:23:07;;;;;;;7.60;3.00;;;;;;;;;;4911053;29;20108;-66
2022/04/07 07:25:34;;;;;;;15.10;3.42;;;;;;;;;;4910167;29;20052;-67
2022/04/07 07:28:01;;;;;;;15.82;2.90;;;;;;;;;;4897999;29;20041;-68
2022/04/07 07:30:28;;;;;;;8.45;3.33;;;;;;;;;;4907923;29;20058;-66
2022/04/07 07:32:54;;;;;;;13.38;3.40;;;;;;;;;;4910686;29;20086;-67
2022/04/07 07:35:22;;;;;;;14.15;3.30;;;;;;;;;;4898823;29;20208;-67
2022/04/07 07:37:52;;;;;;;5.97;3.40;;;;;;;;;;4915169;29;20051;-65
2022/04/07 07:40:21;;;;;;;10.25;3.50;;;;;;;;;;4907802;29;20541;-66
2022/04/07 07:42:48;;;;;;;6.40;3.03;;;;;;;;;;4913578;29;20044;-68
2022/04/07 07:45:15;;;;;;;5.68;2.75;;;;;;;;;;4916229;29;20048;-66
2022/04/07 07:47:41;;;;;;;4.47;2.95;;;;;;;;;;4915782;29;20203;-66
2022/04/07 07:50:07;;;;;;;8.43;2.92;;;;;;;;;;4914931;29;20072;-66
2022/04/07 07:52:33;;;;;;;6.53;2.50;;;;;;;;;;4901830;29;20048;-65
2022/04/07 07:54:59;;;;;;;7.97;3.00;;;;;;;;;;4921113;29;20135;-66
2022/04/07 07:57:25;;;;;;;5.88;2.40;;;;;;;;;;4916034;29;20445;-67
2022/04/07 07:59:51;;;;;;;5.38;3.03;;;;;;;;;;4917013;29;20549;-68
2022/04/07 08:02:18;;;;;;;7.10;2.50;;;;;;;;;;4917163;29;20514;-67
2022/04/07 08:04:45;;;;;;;11.63;2.72;;;;;;;;;;4897964;29;20044;-72
2022/04/07 08:07:11;;;;;;;11.43;2.55;;;;;;;;;;4915918;29;20050;-67
2022/04/07 08:09:37;;;;;;;7.35;2.70;;;;;;;;;;4917253;29;20048;-68
2022/04/07 08:12:04;;;;;;;8.68;2.90;;;;;;;;;;4913747;29;20048;-68
2022/04/07 08:14:30;;;;;;;6.53;3.17;;;;;;;;;;4914850;29;20568;-68
2022/04/07 08:16:56;;;;;;;7.97;3.08;;;;;;;;;;4912813;29;20056;-69
2022/04/07 08:19:22;;;;;;;6.20;2.35;;;;;;;;;;4921712;29;20494;-69
2022/04/07 08:21:48;;;;;;;6.07;2.65;;;;;;;;;;4906566;29;20058;-68
2022/04/07 08:24:19;;;;;;;6.63;2.60;;;;;;;;;;4908927;29;20130;-70
2022/04/07 08:26:45;;;;;;;4.78;2.50;;;;;;;;;;4921755;29;20410;-70
2022/04/07 08:29:12;;;;;;;5.20;2.58;;;;;;;;;;4896600;29;20506;-67
2022/04/07 08:31:38;;;;;;;7.07;3.05;;;;;;;;;;4923446;29;20039;-69
2022/04/07 08:34:05;;;;;;;5.60;2.58;;;;;;;;;;4915814;29;20381;-69
2022/04/07 08:36:31;;;;;;;5.25;2.47;;;;;;;;;;4917347;29;20060;-68
2022/04/07 08:38:57;;;;;;;3.85;2.45;;;;;;;;;;4915162;29;20059;-68
2022/04/07 08:41:24;;;;;;;5.40;2.65;;;;;;;;;;4905815;29;20145;-73
2022/04/07 08:43:54;;;;;;;7.03;2.50;;;;;;;;;;4914576;29;20469;-69
2022/04/07 08:46:20;;;;;;;7.32;2.55;;;;;;;;;;4917843;29;20040;-68
2022/04/07 08:48:46;;;;;;;7.18;2.65;;;;;;;;;;4911250;29;20044;-68
2022/04/07 08:51:12;;;;;;;6.03;3.05;;;;;;;;;;4913677;29;20058;-69
2022/04/07 08:53:39;;;;;;;5.45;2.90;;;;;;;;;;4926349;29;20127;-68
2022/04/07 08:56:07;;;;;;;7.53;3.00;;;;;;;;;;4913760;29;20108;-69
2022/04/07 08:58:33;;;;;;;6.07;2.42;;;;;;;;;;4897621;29;20075;-68
2022/04/07 09:00:59;;;;;;;9.75;3.05;;;;;;;;;;4913689;29;20052;-65
2022/04/07 09:03:25;;;;;;;9.20;2.72;;;;;;;;;;4911536;29;20044;-66
2022/04/07 09:05:57;;;;;;;14.23;2.88;;;;;;;;;;4909810;29;20079;-65
2022/04/07 09:08:38;;;;;;;10.77;2.85;;;;;;;;;;4908101;29;20076;-67
2022/04/07 09:11:07;;;;;;;7.07;2.78;;;;;;;;;;4898596;29;20474;-66
2022/04/07 09:13:34;;;;;;;6.82;2.63;;;;;;;;;;4913017;29;20048;-71
2022/04/07 09:16:04;;;;;;;9.10;2.58;;;;;;;;;;4913177;29;20044;-69
2022/04/07 09:18:37;;;;;;;5.00;2.90;;;;;;;;;;4913339;29;20133;-66
2022/04/07 09:21:04;;;;;;;6.38;2.60;;;;;;;;;;4906490;29;20064;-67
2022/04/07 09:23:43;;;;;;;6.60;2.60;;;;;;;;;;4914035;29;20159;-69
2022/04/07 09:26:13;;;;;;;9.23;3.10;;;;;;;;;;4907454;29;20068;-72
2022/04/07 09:28:39;;;;;;;9.20;2.95;;;;;;;;;;4891234;29;20045;-68
2022/04/07 09:31:05;;;;;;;7.10;2.85;;;;;;;;;;4903082;29;20486;-67
2022/04/07 09:33:31;;;;;;;6.63;3.00;;;;;;;;;;4912493;29;20052;-68
2022/04/07 09:36:01;;;;;;;8.18;2.90;;;;;;;;;;4914045;29;20067;-68
2022/04/07 09:38:30;;;;;;;12.48;3.00;;;;;;;;;;4914568;29;20482;-67
2022/04/07 09:41:23;;;;;;;9.88;2.75;;;;;;;;;;4915131;29;20188;-66
2022/04/07 09:43:51;;;;;;;5.22;2.58;;;;;;;;;;4913662;29;20056;-68
2022/04/07 09:46:18;;;;;;;6.55;2.75;;;;;;;;;;4910509;29;20366;-67
2022/04/07 09:49:07;;;;;;;8.30;2.97;;;;;;;;;;4905306;29;20096;-68
2022/04/07 09:51:38;;;;;;;4.72;2.35;;;;;;;;;;4902300;29;20072;-69
2022/04/07 09:54:09;;;;;;;7.45;3.00;;;;;;;;;;4902359;29;20513;-65
2022/04/07 09:56:36;;;;;;;9.25;2.90;;;;;;;;;;4912415;29;20055;-67
2022/04/07 09:59:05;;;;;;;6.78;3.28;;;;;;;;;;4907612;29;20075;-66
2022/04/07 10:01:38;;;;;;;9.90;2.70;;;;;;;;;;4911994;29;20497;-66
2022/04/07 10:04:08;;;;;;;10.20;3.10;;;;;;;;;;4908580;29;20081;-66
2022/04/07 10:06:36;;;;;;;23.40;3.60;;;;;;;;;;4899257;29;20054;-66
2022/04/07 10:09:04;;;;;;;10.68;3.05;;;;;;;;;;4911258;29;20040;-68
2022/04/07 10:11:31;;;;;;;9.18;3.50;;;;;;;;;;4896212;29;20056;-66
2022/04/07 10:13:58;;;;;;;5.97;2.60;;;;;;;;;;4912468;29;20628;-69
2022/04/07 10:16:25;;;;;;;6.88;3.22;;;;;;;;;;4912888;29;20127;-65
2022/04/07 10:19:02;;;;;;;6.60;2.50;;;;;;;;;;4910522;29;20048;-66
2022/04/07 10:21:53;;;;;;;11.77;2.63;;;;;;;;;;4892403;29;20167;-67
2022/04/07 10:24:33;;;;;;;11.45;2.60;;;;;;;;;;4894142;29;20185;-66
2022/04/07 10:27:02;;;;;;;8.57;2.67;;;;;;;;;;4911246;29;20059;-66
2022/04/07 10:29:28;;;;;;;4.28;2.50;;;;;;;;;;4910455;29;20107;-67
2022/04/07 10:32:13;;;;;;;7.32;2.60;;;;;;;;;;4912308;29;20084;-68
2022/04/07 10:34:52;;;;;;;8.57;3.10;;;;;;;;;;4907236;29;20529;-64
2022/04/07 10:37:44;;;;;;;4.70;2.25;;;;;;;;;;4910178;29;20115;-66
2022/04/07 10:40:33;;;;;;;9.70;2.60;;;;;;;;;;4899799;29;20062;-69
2022/04/07 10:43:18;;;;;;;5.28;2.33;;;;;;;;;;4911025;29;20052;-68
2022/04/07 10:45:49;;;;;;;3.90;2.35;;;;;;;;;;4899313;29;20072;-66
2022/04/07 10:48:16;;;;;;;5.97;2.47;;;;;;;;;;4910103;29;20438;-68
2022/04/07 10:50:49;;;;;;;4.88;2.30;;;;;;;;;;4911141;29;20329;-68
2022/04/07 10:53:22;;;;;;;6.50;2.20;;;;;;;;;;4913411;29;20427;-65
2022/04/07 10:56:10;;;;;;;7.20;2.03;;;;;;;;;;4887420;29;20131;-64
2022/04/07 10:58:49;;;;;;;1.98;1.77;;;;;;;;;;4909353;29;20490;-65
2022/04/07 11:01:39;;;;;;;3.85;2.10;;;;;;;;;;4912319;29;20076;-64
2022/04/07 11:04:18;;;;;;;3.72;2.22;;;;;;;;;;4897211;29;20068;-65
2022/04/07 11:07:11;;;;;;;3.38;2.30;;;;;;;;;;4900833;29;20184;-65
2022/04/07 11:10:00;;;;;;;4.57;1.92;;;;;;;;;;4900408;29;20139;-64
2022/04/07 11:12:28;;;;;;;4.82;2.15;;;;;;;;;;4911635;29;20060;-65
2022/04/07 11:15:04;;;;;;;6.07;2.33;;;;;;;;;;4895805;29;20051;-64
2022/04/07 11:17:37;;;;;;;5.00;2.35;;;;;;;;;;4911508;29;20048;-64
2022/04/07 11:20:15;;;;;;;10.52;2.45;;;;;;;;;;4911185;29;20052;-66
2022/04/07 11:22:57;;;;;;;4.82;2.33;;;;;;;;;;4898781;29;20072;-65
2022/04/07 11:25:27;;;;;;;9.05;2.50;;;;;;;;;;4896864;29;20551;-67
2022/04/07 11:28:13;;;;;;;4.05;2.10;;;;;;;;;;4905162;29;20047;-64
2022/04/07 11:31:06;;;;;;;8.38;2.50;;;;;;;;;;4909461;29;20083;-64
2022/04/07 11:33:39;;;;;;;3.70;1.88;;;;;;;;;;4909152;29;20056;-66
2022/04/07 11:36:12;;;;;;;4.57;2.30;;;;;;;;;;4893258;29;20502;-64
2022/04/07 11:38:43;;;;;;;7.97;2.50;;;;;;;;;;4894740;29;20046;-73
2022/04/07 11:41:11;;;;;;;8.02;2.63;;;;;;;;;;4893582;29;20057;-68
2022/04/07 11:43:49;;;;;;;7.30;2.53;;;;;;;;;;4888550;29;20052;-66
2022/04/07 11:46:32;;;;;;;5.88;2.25;;;;;;;;;;4885752;29;20048;-67
2022/04/07 11:48:59;;;;;;;5.15;2.08;;;;;;;;;;4892908;29;20055;-66
2022/04/07 11:51:26;;;;;;;8.13;1.90;;;;;;;;;;4894547;29;20049;-64
2022/04/07 11:53:53;;;;;;;4.38;2.00;;;;;;;;;;4892334;29;20075;-67
2022/04/07 11:56:20;;;;;;;4.40;1.83;;;;;;;;;;4893481;29;20109;-68
2022/04/07 11:59:00;;;;;;;5.07;1.95;;;;;;;;;;4892080;29;20135;-64
2022/04/07 12:01:26;;;;;;;5.22;2.00;;;;;;;;;;4885860;29;20073;-66
2022/04/07 12:03:53;;;;;;;13.00;3.05;;;;;;;;;;4873882;29;20063;-66
2022/04/07 12:06:27;;;;;;;3.80;1.90;;;;;;;;;;4891253;29;20510;-66
2022/04/07 12:08:54;;;;;;;;;;;;;;;;;;4888847;29;20097;-64
2022/04/07 12:11:21;;;;;;;3.95;1.92;;;;;;;;;;4893711;29;19934;-66
2022/04/07 12:13:49;;;;;;;4.35;1.80;;;;;;;;;;4886563;29;20056;-67
2022/04/07 12:16:16;;;;;;;4.63;1.75;;;;;;;;;;4893335;29;20052;-66
2022/04/07 12:18:54;;;;;;;5.88;2.25;;;;;;;;;;4885936;29;20045;-69
2022/04/07 12:21:20;;;;;;;5.45;2.00;;;;;;;;;;4893022;29;20531;-68
2022/04/07 12:23:47;;;;;;;6.38;2.08;;;;;;;;;;4886380;29;20055;-63
2022/04/07 12:26:13;;;;;;;6.65;1.90;;;;;;;;;;4895353;29;20482;-65
2022/04/07 12:28:40;;;;;;;4.10;1.92;;;;;;;;;;4892956;29;20049;-65
2022/04/07 12:31:11;;;;;;;3.35;1.80;;;;;;;;;;4893605;29;20703;-65
2022/04/07 12:33:44;;;;;;;3.90;2.10;;;;;;;;;;4891099;29;20138;-66
2022/04/07 12:36:26;;;;;;;3.33;1.73;;;;;;;;;;4892507;29;20051;-65
2022/04/07 12:39:00;;;;;;;3.88;1.90;;;;;;;;;;4879459;29;20347;-65
2022/04/07 12:41:53;;;;;;;2.97;1.80;;;;;;;;;;4885738;29;20326;-65
2022/04/07 12:44:39;;;;;;;6.57;2.08;;;;;;;;;;4885383;29;20580;-64
2022/04/07 12:47:14;;;;;;;4.30;2.03;;;;;;;;;;4885766;29;20057;-67
2022/04/07 12:49:41;;;;;;;4.65;2.00;;;;;;;;;;4884997;29;20483;-65
2022/04/07 12:52:11;;;;;;;5.40;2.17;;;;;;;;;;4902748;29;20053;-66
2022/04/07 12:54:54;;;;;;;3.72;1.80;;;;;;;;;;4889677;29;20486;-67
2022/04/07 12:57:20;;;;;;;4.35;2.33;;;;;;;;;;4891799;29;20165;-66
2022/04/07 12:59:58;;;;;;;3.63;1.92;;;;;;;;;;4886596;29;20143;-66
2022/04/07 13:02:25;;;;;;;4.70;1.92;;;;;;;;;;4889913;29;20060;-68
2022/04/07 13:04:53;;;;;;;9.60;2.03;;;;;;;;;;4891721;29;20477;-69
2022/04/07 13:07:21;;;;;;;2.60;1.60;;;;;;;;;;4892703;29;20047;-68
2022/04/07 13:09:49;;;;;;;8.85;2.20;;;;;;;;;;4891994;29;20057;-66
2022/04/07 13:12:16;;;;;;;4.65;2.00;;;;;;;;;;4894202;29;20426;-65
2022/04/07 13:14:43;;;;;;;11.40;1.90;;;;;;;;;;4892661;29;20044;-67
2022/04/07 13:17:09;;;;;;;5.60;2.13;;;;;;;;;;4887985;29;20083;-67
2022/04/07 13:19:39;;;;;;;6.03;2.28;;;;;;;;;;4893631;29;20041;-68
2022/04/07 13:22:05;;;;;;;7.20;1.80;;;;;;;;;;4886537;29;20523;-67
2022/04/07 13:24:32;;;;;;;5.50;2.20;;;;;;;;;;4894458;29;20056;-66
2022/04/07 13:26:58;;;;;;;4.45;1.90;;;;;;;;;;4897001;29;20045;-66
2022/04/07 13:29:24;;;;;;;4.72;2.10;;;;;;;;;;4898175;29;20040;-68
2022/04/07 13:31:51;;;;;;;6.90;2.17;;;;;;;;;;4888210;29;20104;-66
2022/04/07 13:34:18;;;;;;;4.07;2.00;;;;;;;;;;4894926;29;20437;-67
2022/04/07 13:36:44;;;;;;;4.55;1.83;;;;;;;;;;4913781;29;20048;-65
2022/04/07 13:39:11;;;;;;;6.60;1.85;;;;;;;;;;4912458;29;20521;-67
2022/04/07 13:41:38;;;;;;;9.05;1.98;;;;;;;;;;4912022;29;20501;-66
2022/04/07 13:44:04;;;;;;;3.00;1.60;;;;;;;;;;4916507;29;20486;-67
2022/04/07 13:46:31;;;;;;;4.97;1.70;;;;;;;;;;4917542;29;20482;-65
2022/04/07 13:48:56;;;;;;;3.33;2.20;;;;;;;;;;4914425;29;20091;-66
2022/04/07 13:51:22;;;;;;;5.50;1.98;;;;;;;;;;4923143;29;20139;-65
2022/04/07 13:53:48;;;;;;;4.88;1.80;;;;;;;;;;4914050;29;20135;-66
2022/04/07 13:56:14;;;;;;;5.30;1.70;;;;;;;;;;4914972;29;20397;-68
2022/04/07 13:58:40;;;;;;;3.47;1.92;;;;;;;;;;4914260;29;20064;-66
2022/04/07 14:01:09;;;;;;;4.78;1.83;;;;;;;;;;4913028;29;20060;-66
2022/04/07 14:03:35;;;;;;;3.13;1.55;;;;;;;;;;4910795;29;20056;-65
2022/04/07 14:06:02;;;;;;;8.98;2.35;;;;;;;;;;4920158;29;20058;-65
2022/04/07 14:08:29;;;;;;;3.38;1.73;;;;;;;;;;4916916;29;20055;-66
2022/04/07 14:10:55;;;;;;;7.18;1.90;;;;;;;;;;4912874;29;20056;-69
2022/04/07 14:13:23;;;;;;;5.10;2.30;;;;;;;;;;4909584;29;20048;-66
2022/04/07 14:15:50;;;;;;;8.63;1.98;;;;;;;;;;4910808;29;20143;-66
2022/04/07 14:18:16;;;;;;;6.22;2.13;;;;;;;;;;4917544;29;20047;-67
2022/04/07 14:20:45;;;;;;;5.70;2.00;;;;;;;;;;4913219;29;20050;-65
2022/04/07 14:23:11;;;;;;;4.43;1.60;;;;;;;;;;4910974;29;20052;-66
2022/04/07 14:25:38;;;;;;;2.55;1.73;;;;;;;;;;4914773;29;20084;-67
2022/04/07 14:28:04;;;;;;;4.57;1.90;;;;;;;;;;4927972;29;20058;-67
2022/04/07 14:30:30;;;;;;;5.18;1.80;;;;;;;;;;4919988;29;20056;-65
2022/04/07 14:32:56;;;;;;;5.32;1.90;;;;;;;;;;4911881;29;20048;-64
2022/04/07 14:35:22;;;;;;;3.95;2.05;;;;;;;;;;4923123;29;20060;-69
2022/04/07 14:37:49;;;;;;;8.90;2.22;;;;;;;;;;4912111;29;20545;-65
2022/04/07 14:40:15;;;;;;;3.22;1.80;;;;;;;;;;4913091;29;20052;-67
2022/04/07 14:42:41;;;;;;;6.07;1.92;;;;;;;;;;4889519;29;20056;-66
2022/04/07 14:45:08;;;;;;;5.90;2.17;;;;;;;;;;4914571;29;20476;-68
2022/04/07 14:47:35;;;;;;;6.38;2.00;;;;;;;;;;4916122;29;20059;-66
2022/04/07 14:50:02;;;;;;;4.97;2.15;;;;;;;;;;4912343;29;20441;-65